createdAt,value
2023-05-22T00:00:02.451Z,11.50
2023-05-22T00:02:29.263Z,12.68
2023-05-22T00:04:58.830Z,12.27
2023-05-22T00:07:27.541Z,11.73
2023-05-22T00:09:54.237Z,12.52
2023-05-22T00:12:20.876Z,12.60
2023-05-22T00:14:47.529Z,12.30
2023-05-22T00:17:15.081Z,13.30
2023-05-22T00:19:42.366Z,12.38
2023-05-22T00:22:10.062Z,13.55
2023-05-22T00:24:36.784Z,13.32
2023-05-22T00:27:03.608Z,13.85
2023-05-22T00:29:30.321Z,14.68
2023-05-22T00:31:57.201Z,14.02
2023-05-22T00:34:23.829Z,15.25
2023-05-22T00:36:50.482Z,14.27
2023-05-22T00:39:17.135Z,15.10
2023-05-22T00:41:43.803Z,13.93
2023-05-22T00:44:10.609Z,16.00
2023-05-22T00:46:38.146Z,14.13
2023-05-22T00:49:05.047Z,15.75
2023-05-22T00:51:31.852Z,16.17
2023-05-22T00:53:58.627Z,16.10
2023-05-22T00:56:27.101Z,17.23
2023-05-22T00:58:53.722Z,15.70
2023-05-22T01:01:20.685Z,16.15
2023-05-22T01:03:47.947Z,17.00
2023-05-22T01:06:17.958Z,16.80
2023-05-22T01:08:45.073Z,16.17
2023-05-22T01:11:26.811Z,17.63
2023-05-22T01:14:24.450Z,16.55
2023-05-22T01:17:00.181Z,16.15
2023-05-22T01:20:06.112Z,15.90
2023-05-22T01:23:00.269Z,16.42
2023-05-22T01:25:53.843Z,15.57
2023-05-22T01:28:57.739Z,18.48
2023-05-22T01:31:31.619Z,18.80
2023-05-22T01:34:01.061Z,18.60
2023-05-22T01:36:31.454Z,18.80
2023-05-22T01:39:01.376Z,18.10
2023-05-22T01:41:29.885Z,18.45
2023-05-22T01:43:56.912Z,18.20
2023-05-22T01:46:30.644Z,18.48
2023-05-22T01:48:58.337Z,17.95
2023-05-22T01:51:37.229Z,18.30
2023-05-22T01:54:10.634Z,18.98
2023-05-22T01:59:26.231Z,19.92
2023-05-22T02:01:54.630Z,20.30
2023-05-22T02:04:23.091Z,21.55
2023-05-22T02:06:53.063Z,22.27
2023-05-22T02:09:23.445Z,21.48
2023-05-22T02:11:50.884Z,22.35
2023-05-22T02:14:18.653Z,22.73
2023-05-22T02:16:47.822Z,22.67
2023-05-22T02:19:15.406Z,23.23
2023-05-22T02:21:42.374Z,24.40
2023-05-22T02:24:09.304Z,22.98
2023-05-22T02:26:36.039Z,23.35
2023-05-22T02:29:03.397Z,22.52
2023-05-22T02:31:30.062Z,23.10
2023-05-22T02:33:56.676Z,22.45
2023-05-22T02:36:23.491Z,24.17
2023-05-22T02:38:50.136Z,23.25
2023-05-22T02:41:16.744Z,23.83
2023-05-22T02:43:43.396Z,24.35
2023-05-22T02:46:10.358Z,25.55
2023-05-22T02:48:37.088Z,23.95
2023-05-22T02:51:03.782Z,25.67
2023-05-22T02:53:30.416Z,24.92
2023-05-22T02:55:59.097Z,25.52
2023-05-22T02:58:25.810Z,26.65
2023-05-22T03:00:53.842Z,26.85
2023-05-22T03:03:20.718Z,26.95
2023-05-22T03:05:47.565Z,27.35
2023-05-22T03:08:16.065Z,28.08
2023-05-22T03:10:42.776Z,28.00
2023-05-22T03:13:09.410Z,28.83
2023-05-22T03:15:36.041Z,29.33
2023-05-22T03:18:03.159Z,31.38
2023-05-22T03:20:29.940Z,34.22
2023-05-22T03:22:56.527Z,33.10
2023-05-22T03:25:23.189Z,32.67
2023-05-22T03:27:49.938Z,33.53
2023-05-22T03:30:16.617Z,34.92
2023-05-22T03:32:43.253Z,34.72
2023-05-22T03:35:10.330Z,33.50
2023-05-22T03:37:36.999Z,35.50
2023-05-22T03:40:04.897Z,37.05
2023-05-22T03:42:31.584Z,36.05
2023-05-22T03:44:58.224Z,36.22
2023-05-22T03:47:24.929Z,37.72
2023-05-22T03:49:51.531Z,38.60
2023-05-22T03:52:18.184Z,42.03
2023-05-22T03:54:44.810Z,42.83
2023-05-22T03:57:11.460Z,45.42
2023-05-22T03:59:38.120Z,49.88
2023-05-22T04:02:05.520Z,49.78
2023-05-22T04:04:34.168Z,53.08
2023-05-22T04:07:02.778Z,56.22
2023-05-22T04:09:32.052Z,56.42
2023-05-22T04:11:58.821Z,56.67
2023-05-22T04:14:26.315Z,56.88
2023-05-22T04:16:52.960Z,58.83
2023-05-22T04:19:19.842Z,59.50
2023-05-22T04:21:47.595Z,64.50
2023-05-22T04:24:14.238Z,62.30
2023-05-22T04:26:42.576Z,62.70
2023-05-22T04:29:10.706Z,64.50
2023-05-22T04:31:37.559Z,64.47
2023-05-22T04:34:05.284Z,61.67
2023-05-22T04:36:31.940Z,63.13
2023-05-22T04:39:00.461Z,63.90
2023-05-22T04:41:27.161Z,62.80
2023-05-22T04:43:54.117Z,62.45
2023-05-22T04:46:21.318Z,62.92
2023-05-22T04:48:48.033Z,62.40
2023-05-22T04:51:14.788Z,62.22
2023-05-22T04:53:41.393Z,61.60
2023-05-22T04:56:08.147Z,62.38
2023-05-22T04:58:34.821Z,60.70
2023-05-22T05:01:01.463Z,61.17
2023-05-22T05:03:28.744Z,56.95
2023-05-22T05:05:56.802Z,55.50
2023-05-22T05:08:23.451Z,59.35
2023-05-22T05:10:50.081Z,61.15
2023-05-22T05:13:16.659Z,61.88
2023-05-22T05:15:43.363Z,60.00
2023-05-22T05:18:10.059Z,61.03
2023-05-22T05:20:36.933Z,59.88
2023-05-22T05:23:03.849Z,59.00
2023-05-22T05:25:30.688Z,59.13
2023-05-22T05:27:57.709Z,57.80
2023-05-22T05:30:24.558Z,59.55
2023-05-22T05:32:51.260Z,57.25
2023-05-22T05:35:18.087Z,56.17
2023-05-22T05:37:44.713Z,58.90
2023-05-22T05:40:12.026Z,62.20
2023-05-22T05:42:38.643Z,63.22
2023-05-22T05:45:05.634Z,63.03
2023-05-22T05:47:32.250Z,58.70
2023-05-22T05:49:58.913Z,60.47
2023-05-22T05:52:27.183Z,61.08
2023-05-22T05:54:54.013Z,64.90
2023-05-22T05:57:20.978Z,67.50
2023-05-22T05:59:47.950Z,64.93
2023-05-22T06:02:14.725Z,66.68
2023-05-22T06:04:42.313Z,65.78
2023-05-22T06:07:09.077Z,63.33
2023-05-22T06:09:36.428Z,65.15
2023-05-22T06:12:03.237Z,63.28
2023-05-22T06:14:30.736Z,59.55
2023-05-22T06:16:57.553Z,63.50
2023-05-22T06:19:24.314Z,61.40
2023-05-22T06:21:52.231Z,63.53
2023-05-22T06:24:19.417Z,64.30
2023-05-22T06:26:46.532Z,60.50
2023-05-22T06:29:13.203Z,61.13
2023-05-22T06:31:39.891Z,61.75
2023-05-22T06:34:06.901Z,63.15
2023-05-22T06:36:34.858Z,64.88
2023-05-22T06:39:02.609Z,64.97
2023-05-22T06:41:29.331Z,66.18
2023-05-22T06:43:56.044Z,64.53
2023-05-22T06:46:25.925Z,67.97
2023-05-22T06:48:52.963Z,63.58
2023-05-22T06:51:19.670Z,61.70
2023-05-22T06:53:46.339Z,60.20
2023-05-22T06:56:12.975Z,59.95
2023-05-22T06:58:39.739Z,59.03
2023-05-22T07:01:06.341Z,59.72
2023-05-22T07:03:33.084Z,56.28
2023-05-22T07:05:59.872Z,60.42
2023-05-22T07:08:28.367Z,58.72
2023-05-22T07:10:56.489Z,60.40
2023-05-22T07:13:23.602Z,54.80
2023-05-22T07:15:50.542Z,51.15
2023-05-22T07:18:17.426Z,51.72
2023-05-22T07:20:45.008Z,48.70
2023-05-22T07:23:11.758Z,50.30
2023-05-22T07:25:38.541Z,47.55
2023-05-22T07:28:09.069Z,44.15
2023-05-22T07:30:38.588Z,40.67
2023-05-22T07:33:06.373Z,40.08
2023-05-22T07:35:33.260Z,38.97
2023-05-22T07:37:59.893Z,39.25
2023-05-22T07:40:27.529Z,39.42
2023-05-22T07:42:54.183Z,37.58
2023-05-22T07:45:20.902Z,39.13
2023-05-22T07:47:47.584Z,39.17
2023-05-22T07:50:14.397Z,39.72
2023-05-22T07:52:41.295Z,40.28
2023-05-22T07:55:08.521Z,40.55
2023-05-22T07:57:36.302Z,40.08
2023-05-22T08:00:09.513Z,40.55
2023-05-22T08:02:36.601Z,38.97
2023-05-22T08:05:04.642Z,39.50
2023-05-22T08:07:32.979Z,49.85
2023-05-22T08:10:02.378Z,50.40
2023-05-22T08:12:28.954Z,50.03
2023-05-22T08:14:55.899Z,42.50
2023-05-22T08:17:22.682Z,38.58
2023-05-22T08:19:49.561Z,35.97
2023-05-22T08:22:16.304Z,34.15
2023-05-22T08:24:42.957Z,34.80
2023-05-22T08:27:09.603Z,34.35
2023-05-22T08:29:36.621Z,34.05
2023-05-22T08:32:03.498Z,34.65
2023-05-22T08:34:30.146Z,33.58
2023-05-22T08:36:56.841Z,32.25
2023-05-22T08:39:23.457Z,32.83
2023-05-22T08:41:50.318Z,32.17
2023-05-22T08:44:19.799Z,32.05
2023-05-22T08:46:47.386Z,32.17
2023-05-22T08:49:14.112Z,30.88
2023-05-22T08:51:42.498Z,31.58
2023-05-22T08:54:09.952Z,33.85
2023-05-22T08:56:39.843Z,33.78
2023-05-22T08:59:12.734Z,32.22
2023-05-22T09:01:39.514Z,32.78
2023-05-22T09:04:06.276Z,29.65
2023-05-22T09:06:32.991Z,29.60
2023-05-22T09:08:59.890Z,27.65
2023-05-22T09:11:26.674Z,28.08
2023-05-22T09:13:53.364Z,26.50
2023-05-22T09:16:20.286Z,28.52
2023-05-22T09:18:47.046Z,27.83
2023-05-22T09:21:29.668Z,26.08
2023-05-22T09:24:01.625Z,26.55
2023-05-22T09:26:29.447Z,24.77
2023-05-22T09:28:57.322Z,26.02
2023-05-22T09:31:24.114Z,26.88
2023-05-22T09:33:50.983Z,26.67
2023-05-22T09:36:18.024Z,27.08
2023-05-22T09:38:45.107Z,29.25
2023-05-22T09:41:11.769Z,25.80
2023-05-22T09:43:38.417Z,25.70
2023-05-22T09:46:05.313Z,25.85
2023-05-22T09:48:37.299Z,27.67
2023-05-22T09:51:05.203Z,30.67
2023-05-22T09:53:33.227Z,28.67
2023-05-22T09:56:02.053Z,28.23
2023-05-22T09:58:31.429Z,26.02
2023-05-22T10:00:59.507Z,28.58
2023-05-22T10:03:27.621Z,27.38
2023-05-22T10:05:58.561Z,25.10
2023-05-22T10:08:28.187Z,23.27
2023-05-22T10:10:54.936Z,23.80
2023-05-22T10:13:22.320Z,23.13
2023-05-22T10:15:49.917Z,23.35
2023-05-22T10:18:17.667Z,23.40
2023-05-22T10:20:47.226Z,23.05
2023-05-22T10:23:16.603Z,22.35
2023-05-22T10:25:45.497Z,23.85
2023-05-22T10:28:19.945Z,23.60
2023-05-22T10:31:13.811Z,23.80
2023-05-22T10:33:51.647Z,22.88
2023-05-22T10:36:29.150Z,23.17
2023-05-22T10:38:55.886Z,22.48
2023-05-22T10:41:26.458Z,22.13
2023-05-22T10:43:56.695Z,21.00
2023-05-22T10:46:23.326Z,21.52
2023-05-22T10:48:53.291Z,22.25
2023-05-22T10:51:21.985Z,21.55
2023-05-22T10:54:06.795Z,20.58
2023-05-22T10:56:35.512Z,20.40
2023-05-22T10:59:05.350Z,19.35
2023-05-22T11:01:38.332Z,21.00
2023-05-22T11:06:36.316Z,19.77
2023-05-22T11:09:26.173Z,21.95
2023-05-22T11:12:11.834Z,21.33
2023-05-22T11:14:38.843Z,21.27
2023-05-22T11:17:06.562Z,19.33
2023-05-22T11:19:33.506Z,21.40
2023-05-22T11:22:01.980Z,19.95
2023-05-22T11:24:32.769Z,18.20
2023-05-22T11:27:09.115Z,19.45
2023-05-22T11:29:37.235Z,18.67
2023-05-22T11:32:04.010Z,19.88
2023-05-22T11:34:30.760Z,19.10
2023-05-22T11:37:00.616Z,20.05
2023-05-22T11:39:27.692Z,18.73
2023-05-22T11:41:54.748Z,18.63
2023-05-22T11:44:21.495Z,18.95
2023-05-22T11:46:48.292Z,19.92
2023-05-22T11:49:15.145Z,18.80
2023-05-22T11:51:42.284Z,18.42
2023-05-22T11:54:08.905Z,19.17
2023-05-22T11:56:35.537Z,18.95
2023-05-22T11:59:02.447Z,20.55
2023-05-22T12:01:29.113Z,22.35
2023-05-22T12:03:56.075Z,20.77
2023-05-22T12:06:23.158Z,20.63
2023-05-22T12:08:51.358Z,20.38
2023-05-22T12:11:18.112Z,21.02
2023-05-22T12:13:45.580Z,21.83
2023-05-22T12:16:20.185Z,21.05
2023-05-22T12:18:46.858Z,23.10
2023-05-22T12:21:13.614Z,22.40
2023-05-22T12:23:49.291Z,22.90
2023-05-22T12:26:16.353Z,22.25
2023-05-22T12:28:43.580Z,21.45
2023-05-22T12:31:10.295Z,22.35
2023-05-22T12:33:39.721Z,22.75
2023-05-22T12:36:10.475Z,21.38
2023-05-22T12:38:39.407Z,23.50
2023-05-22T12:41:06.372Z,21.77
2023-05-22T12:43:33.134Z,22.33
2023-05-22T12:46:01.047Z,21.83
2023-05-22T12:48:29.309Z,23.60
2023-05-22T12:50:55.995Z,21.63
2023-05-22T12:53:22.738Z,21.17
2023-05-22T12:55:49.352Z,23.95
2023-05-22T12:58:16.218Z,24.42
2023-05-22T13:00:42.864Z,23.35
2023-05-22T13:03:10.041Z,23.58
2023-05-22T13:05:36.704Z,21.85
2023-05-22T13:08:03.399Z,21.85
2023-05-22T13:10:30.661Z,20.55
2023-05-22T13:12:57.480Z,22.52
2023-05-22T13:15:25.497Z,19.65
2023-05-22T13:17:56.995Z,19.23
2023-05-22T13:20:23.732Z,19.67
2023-05-22T13:22:50.471Z,19.02
2023-05-22T13:25:19.140Z,18.02
2023-05-22T13:27:46.382Z,19.75
2023-05-22T13:30:13.384Z,18.83
2023-05-22T13:32:40.359Z,17.77
2023-05-22T13:35:07.354Z,19.80
2023-05-22T13:37:34.107Z,19.73
2023-05-22T13:40:01.249Z,19.58
2023-05-22T13:42:28.039Z,19.23
2023-05-22T13:44:54.821Z,19.35
2023-05-22T13:47:23.032Z,18.52
2023-05-22T13:49:49.857Z,18.63
2023-05-22T13:52:16.597Z,19.27
2023-05-22T13:54:43.567Z,19.35
2023-05-22T13:57:10.400Z,19.15
2023-05-22T13:59:39.563Z,18.52
2023-05-22T14:02:07.505Z,20.70
2023-05-22T14:04:34.487Z,20.88
2023-05-22T14:07:01.357Z,19.45
2023-05-22T14:09:28.099Z,19.80
2023-05-22T14:11:54.776Z,19.52
2023-05-22T14:14:24.128Z,18.90
2023-05-22T14:16:51.733Z,20.58
2023-05-22T14:19:19.301Z,20.48
2023-05-22T14:21:48.756Z,20.20
2023-05-22T14:24:15.986Z,20.35
2023-05-22T14:26:42.718Z,21.02
2023-05-22T14:29:09.495Z,21.08
2023-05-22T14:31:51.773Z,21.08
2023-05-22T14:34:18.979Z,21.17
2023-05-22T14:36:46.334Z,20.92
2023-05-22T14:39:13.007Z,21.58
2023-05-22T14:41:39.657Z,21.27
2023-05-22T14:44:06.473Z,21.20
2023-05-22T14:46:33.174Z,20.75
2023-05-22T14:48:59.900Z,21.45
2023-05-22T14:51:26.600Z,19.98
2023-05-22T14:53:53.258Z,20.23
2023-05-22T14:56:20.081Z,20.58
2023-05-22T14:58:46.686Z,21.20
2023-05-22T15:01:13.625Z,20.05
2023-05-22T15:03:40.365Z,21.30
2023-05-22T15:06:07.259Z,20.33
2023-05-22T15:08:33.896Z,18.95
2023-05-22T15:11:00.488Z,19.35
2023-05-22T15:13:27.111Z,20.90
2023-05-22T15:15:53.803Z,20.08
2023-05-22T15:18:20.623Z,20.45
2023-05-22T15:20:47.214Z,20.63
2023-05-22T15:23:13.946Z,20.10
2023-05-22T15:25:42.945Z,20.33
2023-05-22T15:28:09.605Z,20.90
2023-05-22T15:30:38.774Z,20.08
2023-05-22T15:33:05.617Z,21.08
2023-05-22T15:35:32.630Z,21.00
2023-05-22T15:37:59.507Z,20.20
2023-05-22T15:40:26.352Z,21.73
2023-05-22T15:42:54.033Z,21.75
2023-05-22T15:45:21.287Z,21.42
2023-05-22T15:47:48.096Z,21.67
2023-05-22T15:50:14.808Z,21.85
2023-05-22T15:52:41.388Z,20.85
2023-05-22T15:55:08.374Z,20.63
2023-05-22T15:57:35.075Z,21.38
2023-05-22T16:00:01.862Z,21.83
2023-05-22T16:02:28.508Z,22.25
2023-05-22T16:04:55.149Z,21.08
2023-05-22T16:07:21.810Z,21.63
2023-05-22T16:09:51.726Z,22.00
2023-05-22T16:12:18.985Z,21.27
2023-05-22T16:14:45.837Z,22.10
2023-05-22T16:17:12.515Z,22.20
2023-05-22T16:19:39.376Z,22.38
2023-05-22T16:22:06.161Z,22.38
2023-05-22T16:24:32.792Z,22.30
2023-05-22T16:26:59.983Z,21.67
2023-05-22T16:29:26.742Z,21.88
2023-05-22T16:31:53.431Z,21.00
2023-05-22T16:34:20.190Z,22.40
2023-05-22T16:36:47.224Z,21.63
2023-05-22T16:39:15.483Z,22.48
2023-05-22T16:41:42.172Z,21.67
2023-05-22T16:44:08.745Z,21.90
2023-05-22T16:46:35.371Z,22.40
2023-05-22T16:49:02.183Z,23.33
2023-05-22T16:51:28.789Z,23.17
2023-05-22T16:53:55.417Z,23.58
2023-05-22T16:56:22.795Z,21.70
2023-05-22T16:58:49.564Z,22.80
2023-05-22T17:01:16.247Z,22.08
2023-05-22T17:03:43.069Z,20.92
2023-05-22T17:06:09.831Z,22.58
2023-05-22T17:08:36.455Z,23.13
2023-05-22T17:11:03.217Z,22.13
2023-05-22T17:13:29.954Z,22.02
2023-05-22T17:15:56.763Z,22.10
2023-05-22T17:18:23.368Z,22.35
2023-05-22T17:20:51.117Z,22.52
2023-05-22T17:23:17.996Z,22.48
2023-05-22T17:25:46.812Z,20.58
2023-05-22T17:28:14.638Z,20.60
2023-05-22T17:30:42.795Z,21.13
2023-05-22T17:33:10.170Z,20.08
2023-05-22T17:35:36.917Z,20.77
2023-05-22T17:38:03.582Z,17.85
2023-05-22T17:40:40.432Z,19.15
2023-05-22T17:43:11.383Z,19.08
2023-05-22T17:45:38.168Z,18.42
2023-05-22T17:48:07.999Z,17.55
2023-05-22T17:50:34.865Z,17.60
2023-05-22T17:53:01.538Z,18.17
2023-05-22T17:55:28.165Z,16.40
2023-05-22T17:57:55.507Z,16.70
2023-05-22T18:00:22.274Z,17.08
2023-05-22T18:02:52.244Z,17.27
2023-05-22T18:05:19.030Z,16.05
2023-05-22T18:07:45.887Z,15.23
2023-05-22T18:10:12.628Z,14.02
2023-05-22T18:12:39.590Z,7.47
2023-05-22T18:15:09.684Z,4.43
2023-05-22T18:17:36.540Z,3.13
2023-05-22T18:20:08.927Z,3.45
2023-05-22T18:22:38.758Z,3.10
2023-05-22T18:25:07.462Z,3.08
2023-05-22T18:27:37.771Z,3.35
2023-05-22T18:30:05.593Z,2.90
2023-05-22T18:32:32.344Z,3.95
2023-05-22T18:35:00.301Z,2.88
2023-05-22T18:37:26.953Z,3.75
2023-05-22T18:39:53.796Z,3.22
2023-05-22T18:42:20.802Z,3.28
2023-05-22T18:44:48.979Z,3.25
2023-05-22T18:47:16.300Z,3.50
2023-05-22T18:49:43.662Z,2.70
2023-05-22T18:52:10.676Z,3.40
2023-05-22T18:54:37.501Z,3.80
2023-05-22T18:57:06.823Z,3.65
2023-05-22T18:59:41.570Z,3.50
2023-05-22T19:02:08.896Z,4.07
2023-05-22T19:04:35.996Z,3.83
2023-05-22T19:07:12.236Z,4.05
2023-05-22T19:09:46.081Z,4.25
2023-05-22T19:12:16.182Z,4.13
2023-05-22T19:14:51.733Z,3.65
2023-05-22T19:17:19.542Z,4.47
2023-05-22T19:19:46.980Z,4.80
2023-05-22T19:22:14.560Z,4.40
2023-05-22T19:24:42.537Z,4.30
2023-05-22T19:27:09.261Z,4.28
2023-05-22T19:29:36.044Z,5.07
2023-05-22T19:32:02.835Z,4.63
2023-05-22T19:34:29.471Z,5.10
2023-05-22T19:36:57.928Z,4.40
2023-05-22T19:39:25.053Z,5.10
2023-05-22T19:41:52.681Z,4.60
2023-05-22T19:44:19.584Z,4.90
2023-05-22T19:46:46.607Z,5.20
2023-05-22T19:49:13.408Z,5.30
2023-05-22T19:51:40.104Z,5.32
2023-05-22T19:54:06.784Z,5.72
2023-05-22T19:56:35.039Z,5.10
2023-05-22T19:59:01.838Z,5.72
2023-05-22T20:01:28.825Z,5.55
2023-05-22T20:03:56.444Z,5.93
2023-05-22T20:06:23.282Z,6.07
2023-05-22T20:08:49.927Z,5.85
2023-05-22T20:11:16.617Z,6.63
2023-05-22T20:13:43.262Z,5.93
2023-05-22T20:16:12.665Z,6.40
2023-05-22T20:18:41.165Z,6.00
2023-05-22T20:21:09.906Z,6.32
2023-05-22T20:23:36.575Z,6.72
2023-05-22T20:26:03.171Z,7.65
2023-05-22T20:28:29.885Z,7.07
2023-05-22T20:30:56.623Z,7.22
2023-05-22T20:33:23.243Z,7.57
2023-05-22T20:35:52.871Z,7.50
2023-05-22T20:38:20.244Z,7.40
2023-05-22T20:40:47.574Z,7.07
2023-05-22T20:43:14.721Z,7.05
2023-05-22T20:45:45.893Z,7.10
2023-05-22T20:48:13.786Z,8.10
2023-05-22T20:50:42.167Z,8.75
2023-05-22T20:53:08.891Z,8.88
2023-05-22T20:55:35.750Z,8.05
2023-05-22T20:58:02.509Z,8.85
2023-05-22T21:00:29.973Z,9.80
2023-05-22T21:02:58.353Z,9.50
2023-05-22T21:05:25.824Z,9.15
2023-05-22T21:07:52.468Z,10.90
2023-05-22T21:10:19.079Z,10.82
2023-05-22T21:12:45.922Z,10.90
2023-05-22T21:15:12.583Z,11.23
2023-05-22T21:17:39.310Z,12.48
2023-05-22T21:20:06.733Z,12.05
2023-05-22T21:22:33.462Z,12.52
2023-05-22T21:25:00.067Z,13.88
2023-05-22T21:27:26.684Z,13.40
2023-05-22T21:29:53.281Z,14.52
2023-05-22T21:32:19.924Z,13.55
2023-05-22T21:34:46.798Z,14.40
2023-05-22T21:37:13.480Z,14.70
2023-05-22T21:39:40.708Z,15.35
2023-05-22T21:42:07.674Z,15.02
2023-05-22T21:44:34.310Z,14.57
2023-05-22T21:47:01.204Z,15.00
2023-05-22T21:49:27.905Z,16.13
2023-05-22T21:51:54.645Z,14.93
2023-05-22T21:54:21.289Z,16.05
2023-05-22T21:56:47.915Z,16.55
2023-05-22T21:59:14.841Z,17.67
2023-05-22T22:01:41.575Z,17.15
2023-05-22T22:04:08.423Z,18.48
2023-05-22T22:06:36.837Z,17.95
2023-05-22T22:09:03.842Z,20.15
2023-05-22T22:11:30.818Z,21.75
2023-05-22T22:13:57.508Z,22.73
2023-05-22T22:16:24.508Z,25.35
2023-05-22T22:18:51.426Z,25.38
2023-05-22T22:21:18.185Z,26.42
2023-05-22T22:23:44.824Z,27.23
2023-05-22T22:26:12.732Z,26.33
2023-05-22T22:28:39.436Z,25.90
2023-05-22T22:31:06.104Z,25.35
2023-05-22T22:33:32.945Z,24.50
2023-05-22T22:36:00.207Z,22.48
2023-05-22T22:38:26.980Z,22.02
2023-05-22T22:40:53.652Z,20.08
2023-05-22T22:43:20.417Z,20.27
2023-05-22T22:45:47.179Z,19.70
2023-05-22T22:48:13.924Z,18.70
2023-05-22T22:50:41.513Z,18.20
2023-05-22T22:53:08.408Z,18.08
2023-05-22T22:55:35.178Z,18.42
2023-05-22T22:58:01.995Z,16.73
2023-05-22T23:00:28.630Z,17.40
2023-05-22T23:02:55.401Z,17.40
2023-05-22T23:05:22.251Z,16.60
2023-05-22T23:07:49.116Z,17.02
2023-05-22T23:10:16.023Z,16.75
2023-05-22T23:12:42.818Z,17.52
2023-05-22T23:15:11.228Z,16.45
2023-05-22T23:17:38.294Z,16.20
2023-05-22T23:20:05.986Z,16.45
2023-05-22T23:22:32.639Z,16.65
2023-05-22T23:24:59.258Z,17.02
2023-05-22T23:27:26.218Z,17.48
2023-05-22T23:29:52.873Z,17.95
2023-05-22T23:32:19.482Z,18.13
2023-05-22T23:34:46.081Z,18.48
2023-05-22T23:37:12.730Z,19.13
2023-05-22T23:39:39.359Z,17.48
2023-05-22T23:42:09.815Z,18.35
2023-05-22T23:44:39.360Z,18.15
2023-05-22T23:47:06.911Z,18.88
2023-05-22T23:49:33.937Z,18.30
2023-05-22T23:52:00.927Z,18.27
2023-05-22T23:54:27.694Z,17.10
2023-05-22T23:56:54.414Z,18.38
2023-05-22T23:59:21.570Z,18.40
